createdAt,value
2018-09-12T00:01:12.073Z,4.03
2018-09-12T00:06:09.034Z,3.97
2018-09-12T00:11:05.985Z,4.53
2018-09-12T00:16:03.294Z,4.03
2018-09-12T00:21:00.336Z,4.80
2018-09-12T00:25:57.243Z,4.33
2018-09-12T00:30:54.239Z,4.13
2018-09-12T00:35:50.975Z,4.23
2018-09-12T00:40:47.969Z,4.23
2018-09-12T00:45:44.738Z,3.80
2018-09-12T00:50:41.861Z,4.30
2018-09-12T00:55:38.585Z,4.50
2018-09-12T01:00:35.516Z,4.27
2018-09-12T01:05:32.282Z,3.97
2018-09-12T01:10:29.236Z,4.73
2018-09-12T01:15:25.644Z,4.50
2018-09-12T01:20:22.545Z,4.17
2018-09-12T01:25:19.272Z,4.23
2018-09-12T01:30:22.305Z,4.20
2018-09-12T01:35:19.206Z,4.47
2018-09-12T01:40:16.349Z,4.53
2018-09-12T01:45:14.825Z,4.60
2018-09-12T01:50:11.793Z,4.03
2018-09-12T01:55:08.553Z,4.53
2018-09-12T02:00:05.737Z,4.70
2018-09-12T02:05:02.465Z,4.80
2018-09-12T02:09:59.431Z,4.87
2018-09-12T02:14:56.137Z,5.37
2018-09-12T02:19:53.253Z,4.23
2018-09-12T02:24:49.997Z,4.30
2018-09-12T02:29:46.986Z,4.30
2018-09-12T02:34:43.713Z,4.60
2018-09-12T02:39:40.613Z,4.33
2018-09-12T02:44:37.330Z,4.97
2018-09-12T02:49:34.309Z,4.77
2018-09-12T02:54:31.037Z,4.63
2018-09-12T02:59:28.347Z,4.90
2018-09-12T03:04:36.696Z,4.57
2018-09-12T03:09:33.470Z,4.97
2018-09-12T03:14:30.501Z,4.70
2018-09-12T03:19:27.445Z,4.67
2018-09-12T03:24:24.436Z,5.37
2018-09-12T03:29:21.134Z,4.97
2018-09-12T03:34:18.145Z,5.30
2018-09-12T03:39:14.884Z,4.50
2018-09-12T03:44:12.305Z,4.87
2018-09-12T03:49:09.336Z,4.83
2018-09-12T03:54:06.518Z,5.97
2018-09-12T03:59:03.477Z,5.77
2018-09-12T04:04:00.177Z,5.10
2018-09-12T04:08:57.093Z,5.10
2018-09-12T04:13:53.808Z,5.73
2018-09-12T04:18:50.810Z,5.53
2018-09-12T04:23:47.915Z,5.23
2018-09-12T04:28:44.990Z,5.07
2018-09-12T04:33:42.141Z,5.20
2018-09-12T04:38:38.555Z,5.47
2018-09-12T04:43:35.534Z,5.80
2018-09-12T04:48:32.407Z,5.30
2018-09-12T04:53:29.384Z,5.30
2018-09-12T04:58:26.079Z,5.17
2018-09-12T05:03:23.169Z,4.93
2018-09-12T05:08:20.445Z,5.33
2018-09-12T05:13:17.169Z,6.20
2018-09-12T05:18:14.115Z,5.60
2018-09-12T05:23:10.845Z,5.37
2018-09-12T05:28:08.139Z,6.37
2018-09-12T05:33:04.926Z,5.30
2018-09-12T05:38:01.816Z,5.10
2018-09-12T05:42:59.143Z,6.10
2018-09-12T05:47:56.341Z,6.10
2018-09-12T05:52:53.124Z,5.20
2018-09-12T05:57:50.569Z,5.20
2018-09-12T06:02:47.292Z,5.40
2018-09-12T06:07:44.045Z,5.63
2018-09-12T06:12:40.834Z,5.93
2018-09-12T06:17:37.814Z,5.60
2018-09-12T06:22:34.964Z,5.63
2018-09-12T06:27:31.958Z,6.53
2018-09-12T06:32:29.005Z,5.93
2018-09-12T06:37:25.727Z,5.70
2018-09-12T06:42:22.634Z,5.23
2018-09-12T06:47:19.391Z,5.80
2018-09-12T06:52:17.889Z,5.17
2018-09-12T06:57:14.908Z,5.80
2018-09-12T07:02:12.317Z,6.00
2018-09-12T07:07:08.984Z,5.17
2018-09-12T07:12:06.242Z,5.00
2018-09-12T07:17:03.299Z,5.07
2018-09-12T07:22:00.089Z,5.20
2018-09-12T07:26:56.930Z,4.73
2018-09-12T07:31:53.671Z,4.70
2018-09-12T07:36:50.957Z,4.40
2018-09-12T07:41:47.698Z,4.63
2018-09-12T07:46:44.588Z,4.58
2018-09-12T07:51:41.403Z,4.92
2018-09-12T07:56:38.716Z,5.60
2018-09-12T08:01:35.433Z,5.12
2018-09-12T08:06:32.440Z,5.28
2018-09-12T08:11:29.216Z,5.30
2018-09-12T08:16:26.557Z,5.15
2018-09-12T08:21:23.251Z,5.00
2018-09-12T08:26:20.560Z,4.92
2018-09-12T08:31:17.218Z,4.75
2018-09-12T08:36:14.205Z,4.28
2018-09-12T08:41:11.445Z,5.08
2018-09-12T08:46:08.544Z,4.22
2018-09-12T08:51:05.255Z,4.30
2018-09-12T08:56:02.268Z,4.25
2018-09-12T09:00:58.957Z,4.30
2018-09-12T09:05:55.977Z,4.15
2018-09-12T09:10:52.763Z,4.40
2018-09-12T09:15:49.801Z,4.05
2018-09-12T09:20:46.530Z,3.80
2018-09-12T09:25:43.638Z,4.15
2018-09-12T09:30:40.352Z,4.22
2018-09-12T09:35:37.592Z,4.20
2018-09-12T09:40:34.629Z,3.95
2018-09-12T09:45:31.668Z,3.35
2018-09-12T09:50:28.396Z,3.60
2018-09-12T09:55:25.311Z,3.77
2018-09-12T10:00:28.120Z,3.25
2018-09-12T10:05:29.663Z,3.25
2018-09-12T10:10:26.378Z,3.30
2018-09-12T10:15:23.382Z,3.35
2018-09-12T10:20:20.148Z,3.62
2018-09-12T10:25:17.261Z,3.12
2018-09-12T10:30:13.968Z,3.08
2018-09-12T10:35:10.941Z,3.12
2018-09-12T10:40:08.381Z,3.08
2018-09-12T10:45:06.375Z,3.40
2018-09-12T10:50:03.166Z,3.75
2018-09-12T10:55:00.105Z,3.52
2018-09-12T10:59:57.396Z,3.15
2018-09-12T11:04:54.181Z,3.20
2018-09-12T11:09:51.173Z,3.20
2018-09-12T11:14:47.842Z,3.35
2018-09-12T11:19:44.953Z,3.35
2018-09-12T11:24:41.719Z,3.15
2018-09-12T11:29:38.742Z,3.02
2018-09-12T11:34:35.465Z,3.08
2018-09-12T11:39:33.077Z,3.37
2018-09-12T11:44:29.855Z,3.10
2018-09-12T11:49:26.891Z,2.85
2018-09-12T11:54:24.773Z,2.92
2018-09-12T11:59:21.949Z,3.25
2018-09-12T12:04:18.684Z,2.85
2018-09-12T12:09:15.663Z,3.08
2018-09-12T12:14:12.360Z,2.85
2018-09-12T12:19:09.402Z,2.62
2018-09-12T12:24:06.159Z,2.98
2018-09-12T12:29:03.129Z,2.90
2018-09-12T12:33:59.891Z,2.92
2018-09-12T12:38:56.677Z,2.80
2018-09-12T12:43:54.105Z,2.85
2018-09-12T12:48:51.082Z,3.05
2018-09-12T12:53:47.808Z,2.75
2018-09-12T12:58:44.789Z,2.80
2018-09-12T13:03:41.481Z,2.83
2018-09-12T13:08:38.603Z,3.10
2018-09-12T13:13:35.352Z,2.70
2018-09-12T13:18:32.334Z,2.95
2018-09-12T13:23:29.250Z,2.75
2018-09-12T13:28:26.475Z,3.02
2018-09-12T13:33:23.234Z,2.80
2018-09-12T13:38:20.199Z,2.98
2018-09-12T13:43:16.910Z,2.90
2018-09-12T13:48:15.020Z,2.85
2018-09-12T13:53:11.702Z,3.10
2018-09-12T13:58:08.749Z,3.12
2018-09-12T14:03:05.329Z,3.12
2018-09-12T14:08:02.351Z,2.90
2018-09-12T14:12:59.063Z,2.90
2018-09-12T14:17:56.183Z,3.17
2018-09-12T14:22:53.142Z,2.87
2018-09-12T14:27:50.164Z,3.00
2018-09-12T14:32:46.909Z,2.90
2018-09-12T14:37:44.042Z,2.87
2018-09-12T14:42:41.019Z,3.27
2018-09-12T14:47:37.707Z,3.00
2018-09-12T14:52:34.736Z,3.25
2018-09-12T14:57:31.706Z,2.95
2018-09-12T15:02:28.372Z,2.90
2018-09-12T15:12:45.010Z,2.90
2018-09-12T15:22:57.957Z,3.08
2018-09-12T15:27:54.763Z,3.00
2018-09-12T15:32:51.607Z,3.47
2018-09-12T15:37:48.320Z,2.95
2018-09-12T15:42:45.511Z,3.42
2018-09-12T15:47:42.210Z,3.22
2018-09-12T15:52:39.337Z,3.15
2018-09-12T15:57:36.183Z,3.30
2018-09-12T16:02:32.998Z,2.90
2018-09-12T16:07:29.906Z,2.98
2018-09-12T16:12:27.529Z,3.30
2018-09-12T16:17:24.273Z,3.65
2018-09-12T16:22:21.296Z,4.33
2018-09-12T16:27:18.616Z,3.58
2018-09-12T16:32:15.875Z,6.65
2018-09-12T16:37:12.684Z,3.55
2018-09-12T16:42:09.670Z,3.80
2018-09-12T16:47:06.457Z,3.40
2018-09-12T16:52:03.397Z,6.65
2018-09-12T16:57:00.138Z,4.53
2018-09-12T17:01:57.238Z,3.67
2018-09-12T17:06:54.008Z,4.33
2018-09-12T17:11:51.562Z,5.12
2018-09-12T17:16:49.091Z,4.37
2018-09-12T17:21:45.993Z,4.37
2018-09-12T17:26:42.748Z,12.50
2018-09-12T17:31:39.934Z,5.58
2018-09-12T17:36:36.736Z,4.37
2018-09-12T17:41:33.662Z,4.90
2018-09-12T17:46:30.414Z,4.45
2018-09-12T17:51:27.371Z,4.62
2018-09-12T17:56:29.721Z,4.87
2018-09-12T18:01:26.646Z,10.20
2018-09-12T18:06:23.709Z,4.70
2018-09-12T18:11:20.454Z,4.28
2018-09-12T18:16:17.913Z,4.50
2018-09-12T18:21:14.656Z,4.47
2018-09-12T18:26:11.636Z,4.50
2018-09-12T18:31:08.408Z,5.53
2018-09-12T18:36:05.830Z,5.25
2018-09-12T18:41:02.594Z,4.97
2018-09-12T18:45:59.776Z,4.65
2018-09-12T18:50:56.855Z,4.40
2018-09-12T18:55:53.784Z,4.65
2018-09-12T19:00:50.462Z,4.53
2018-09-12T19:05:47.342Z,5.15
2018-09-12T19:10:44.097Z,4.90
2018-09-12T19:15:40.881Z,4.62
2018-09-12T19:20:37.386Z,5.03
2018-09-12T19:25:34.383Z,5.45
2018-09-12T19:30:31.132Z,4.85
2018-09-12T19:35:28.171Z,5.50
2018-09-12T19:40:24.943Z,5.37
2018-09-12T19:45:22.212Z,5.25
2018-09-12T19:50:19.016Z,5.25
2018-09-12T19:55:16.138Z,4.72
2018-09-12T20:00:14.420Z,5.70
2018-09-12T20:05:11.399Z,5.85
2018-09-12T20:10:08.652Z,5.40
2018-09-12T20:15:05.404Z,5.30
2018-09-12T20:20:02.898Z,5.62
2018-09-12T20:24:59.841Z,5.72
2018-09-12T20:29:57.049Z,5.87
2018-09-12T20:34:53.926Z,5.00
2018-09-12T20:39:50.947Z,5.22
2018-09-12T20:44:47.643Z,5.78
2018-09-12T20:49:44.774Z,5.70
2018-09-12T20:54:41.545Z,5.47
2018-09-12T20:59:38.688Z,5.72
2018-09-12T21:04:35.412Z,5.78
2018-09-12T21:09:32.417Z,6.30
2018-09-12T21:14:29.067Z,5.47
2018-09-12T21:19:26.635Z,5.78
2018-09-12T21:24:23.327Z,5.97
2018-09-12T21:29:20.275Z,5.85
2018-09-12T21:34:16.964Z,5.50
2018-09-12T21:39:13.895Z,5.33
2018-09-12T21:44:11.161Z,5.92
2018-09-12T21:49:07.886Z,5.80
2018-09-12T21:54:04.932Z,5.78
2018-09-12T21:59:02.132Z,6.50
2018-09-12T22:03:58.835Z,6.10
2018-09-12T22:08:55.772Z,6.00
2018-09-12T22:13:52.490Z,5.90
2018-09-12T22:18:49.467Z,6.00
2018-09-12T22:23:46.982Z,6.17
2018-09-12T22:28:43.939Z,6.50
2018-09-12T22:33:40.663Z,6.20
2018-09-12T22:38:37.704Z,5.93
2018-09-12T22:43:34.425Z,6.60
2018-09-12T22:48:31.819Z,6.17
2018-09-12T22:53:28.648Z,6.30
2018-09-12T22:58:25.807Z,5.83
2018-09-12T23:03:22.612Z,6.50
2018-09-12T23:08:19.733Z,6.30
2018-09-12T23:13:16.895Z,6.87
2018-09-12T23:18:13.623Z,6.90
2018-09-12T23:23:10.801Z,6.70
2018-09-12T23:28:07.494Z,6.13
2018-09-12T23:33:04.429Z,6.07
2018-09-12T23:38:01.392Z,6.67
2018-09-12T23:42:58.181Z,6.33
2018-09-12T23:47:55.106Z,6.53
2018-09-12T23:52:51.886Z,5.97
2018-09-12T23:57:48.932Z,5.70
